sensor_id;sensor_type;location;lat;lon;timestamp;temperature;humidity
36670;DHT22;22662;47.412;9.742;2022-07-29T00:01:46;18.40;99.90
36670;DHT22;22662;47.412;9.742;2022-07-29T00:04:12;18.30;99.90
36670;DHT22;22662;47.412;9.742;2022-07-29T00:06:38;18.30;99.90
36670;DHT22;22662;47.412;9.742;2022-07-29T00:09:04;18.30;99.90
36670;DHT22;22662;47.412;9.742;2022-07-29T00:11:30;18.30;99.90
36670;DHT22;22662;47.412;9.742;2022-07-29T00:13:56;18.30;99.90
36670;DHT22;22662;47.412;9.742;2022-07-29T00:16:21;18.30;99.90
36670;DHT22;22662;47.412;9.742;2022-07-29T00:18:48;18.30;99.90
36670;DHT22;22662;47.412;9.742;2022-07-29T00:21:14;18.30;99.90
36670;DHT22;22662;47.412;9.742;2022-07-29T00:23:40;18.50;99.90
36670;DHT22;22662;47.412;9.742;2022-07-29T00:26:06;18.50;99.90
36670;DHT22;22662;47.412;9.742;2022-07-29T00:28:32;18.50;99.90
36670;DHT22;22662;47.412;9.742;2022-07-29T00:30:58;18.40;99.90
36670;DHT22;22662;47.412;9.742;2022-07-29T00:33:24;18.40;99.90
36670;DHT22;22662;47.412;9.742;2022-07-29T00:35:49;18.40;99.90
36670;DHT22;22662;47.412;9.742;2022-07-29T00:38:17;18.30;99.90
36670;DHT22;22662;47.412;9.742;2022-07-29T00:40:44;18.30;99.90
36670;DHT22;22662;47.412;9.742;2022-07-29T00:43:11;18.10;99.90
36670;DHT22;22662;47.412;9.742;2022-07-29T00:45:37;18.10;99.90
36670;DHT22;22662;47.412;9.742;2022-07-29T00:48:03;18.20;99.90
36670;DHT22;22662;47.412;9.742;2022-07-29T00:50:31;18.10;99.90
36670;DHT22;22662;47.412;9.742;2022-07-29T00:52:57;17.90;99.90
36670;DHT22;22662;47.412;9.742;2022-07-29T00:55:23;17.80;99.90
36670;DHT22;22662;47.412;9.742;2022-07-29T00:57:49;17.70;99.90
36670;DHT22;22662;47.412;9.742;2022-07-29T01:00:21;17.80;99.90
36670;DHT22;22662;47.412;9.742;2022-07-29T01:02:47;17.80;99.90
36670;DHT22;22662;47.412;9.742;2022-07-29T01:05:16;17.80;99.90
36670;DHT22;22662;47.412;9.742;2022-07-29T01:07:42;17.90;99.90
36670;DHT22;22662;47.412;9.742;2022-07-29T01:10:09;17.90;99.90
36670;DHT22;22662;47.412;9.742;2022-07-29T01:12:37;17.80;99.90
36670;DHT22;22662;47.412;9.742;2022-07-29T01:15:07;17.80;99.90
36670;DHT22;22662;47.412;9.742;2022-07-29T01:30:46;17.30;99.90
36670;DHT22;22662;47.412;9.742;2022-07-29T01:33:17;17.30;99.90
36670;DHT22;22662;47.412;9.742;2022-07-29T01:36:09;17.20;99.90
36670;DHT22;22662;47.412;9.742;2022-07-29T01:38:38;17.20;99.90
36670;DHT22;22662;47.412;9.742;2022-07-29T01:41:05;17.30;99.90
36670;DHT22;22662;47.412;9.742;2022-07-29T01:43:38;17.30;99.90
36670;DHT22;22662;47.412;9.742;2022-07-29T01:46:11;17.30;99.90
36670;DHT22;22662;47.412;9.742;2022-07-29T01:48:55;17.30;99.90
36670;DHT22;22662;47.412;9.742;2022-07-29T01:51:31;17.40;99.90
36670;DHT22;22662;47.412;9.742;2022-07-29T01:54:02;17.50;99.90
36670;DHT22;22662;47.412;9.742;2022-07-29T01:56:31;17.40;99.90
36670;DHT22;22662;47.412;9.742;2022-07-29T01:58:59;17.40;99.90
36670;DHT22;22662;47.412;9.742;2022-07-29T02:01:27;17.40;99.90
36670;DHT22;22662;47.412;9.742;2022-07-29T02:03:56;17.50;99.90
36670;DHT22;22662;47.412;9.742;2022-07-29T02:06:23;17.50;99.90
36670;DHT22;22662;47.412;9.742;2022-07-29T02:08:51;17.70;99.90
36670;DHT22;22662;47.412;9.742;2022-07-29T02:11:18;17.70;99.90
36670;DHT22;22662;47.412;9.742;2022-07-29T02:13:45;17.80;99.90
36670;DHT22;22662;47.412;9.742;2022-07-29T02:16:12;17.80;99.90
36670;DHT22;22662;47.412;9.742;2022-07-29T02:18:41;17.80;99.90
36670;DHT22;22662;47.412;9.742;2022-07-29T02:21:08;17.80;99.90
36670;DHT22;22662;47.412;9.742;2022-07-29T02:23:35;17.90;99.90
36670;DHT22;22662;47.412;9.742;2022-07-29T02:26:03;18.10;99.90
36670;DHT22;22662;47.412;9.742;2022-07-29T02:28:29;18.00;99.90
36670;DHT22;22662;47.412;9.742;2022-07-29T02:30:59;17.80;99.90
36670;DHT22;22662;47.412;9.742;2022-07-29T02:33:27;17.60;99.90
36670;DHT22;22662;47.412;9.742;2022-07-29T02:35:55;17.70;99.90
36670;DHT22;22662;47.412;9.742;2022-07-29T02:38:22;17.40;99.90
36670;DHT22;22662;47.412;9.742;2022-07-29T02:41:13;17.40;99.90
36670;DHT22;22662;47.412;9.742;2022-07-29T02:43:41;17.40;99.90
36670;DHT22;22662;47.412;9.742;2022-07-29T02:46:13;17.30;99.90
36670;DHT22;22662;47.412;9.742;2022-07-29T02:48:51;17.20;99.90
36670;DHT22;22662;47.412;9.742;2022-07-29T02:51:25;17.20;99.90
36670;DHT22;22662;47.412;9.742;2022-07-29T02:53:55;17.10;99.90
36670;DHT22;22662;47.412;9.742;2022-07-29T02:56:25;17.10;99.90
36670;DHT22;22662;47.412;9.742;2022-07-29T02:58:56;17.10;99.90
36670;DHT22;22662;47.412;9.742;2022-07-29T03:01:25;17.00;99.90
36670;DHT22;22662;47.412;9.742;2022-07-29T03:03:56;17.00;99.90
36670;DHT22;22662;47.412;9.742;2022-07-29T03:06:24;16.90;99.90
36670;DHT22;22662;47.412;9.742;2022-07-29T03:08:51;16.90;99.90
36670;DHT22;22662;47.412;9.742;2022-07-29T03:11:18;16.70;99.90
36670;DHT22;22662;47.412;9.742;2022-07-29T03:13:44;16.70;99.90
36670;DHT22;22662;47.412;9.742;2022-07-29T03:16:11;16.70;99.90
36670;DHT22;22662;47.412;9.742;2022-07-29T03:18:38;16.70;99.90
36670;DHT22;22662;47.412;9.742;2022-07-29T03:21:04;17.00;99.90
36670;DHT22;22662;47.412;9.742;2022-07-29T03:23:30;17.00;99.90
36670;DHT22;22662;47.412;9.742;2022-07-29T03:25:56;16.90;99.90
36670;DHT22;22662;47.412;9.742;2022-07-29T03:28:22;17.00;99.90
36670;DHT22;22662;47.412;9.742;2022-07-29T03:30:49;17.00;99.90
36670;DHT22;22662;47.412;9.742;2022-07-29T03:33:15;16.80;99.90
36670;DHT22;22662;47.412;9.742;2022-07-29T03:35:41;16.70;99.90
36670;DHT22;22662;47.412;9.742;2022-07-29T03:38:07;16.70;99.90
36670;DHT22;22662;47.412;9.742;2022-07-29T03:40:53;16.70;99.90
36670;DHT22;22662;47.412;9.742;2022-07-29T03:43:20;16.80;99.90
36670;DHT22;22662;47.412;9.742;2022-07-29T03:45:52;16.90;99.90
36670;DHT22;22662;47.412;9.742;2022-07-29T03:48:21;17.10;99.90
36670;DHT22;22662;47.412;9.742;2022-07-29T03:50:49;17.10;99.90
36670;DHT22;22662;47.412;9.742;2022-07-29T03:53:16;17.10;99.90
36670;DHT22;22662;47.412;9.742;2022-07-29T03:55:45;17.10;99.90
36670;DHT22;22662;47.412;9.742;2022-07-29T03:58:13;17.30;99.90
36670;DHT22;22662;47.412;9.742;2022-07-29T04:00:40;17.30;99.90
36670;DHT22;22662;47.412;9.742;2022-07-29T04:03:06;17.30;99.90
36670;DHT22;22662;47.412;9.742;2022-07-29T04:05:32;17.40;99.90
36670;DHT22;22662;47.412;9.742;2022-07-29T04:07:58;17.50;99.90
36670;DHT22;22662;47.412;9.742;2022-07-29T04:10:24;17.60;99.90
36670;DHT22;22662;47.412;9.742;2022-07-29T04:12:50;17.60;99.90
36670;DHT22;22662;47.412;9.742;2022-07-29T04:15:15;17.70;99.90
36670;DHT22;22662;47.412;9.742;2022-07-29T04:17:41;17.70;99.90
36670;DHT22;22662;47.412;9.742;2022-07-29T04:20:08;17.80;99.90
36670;DHT22;22662;47.412;9.742;2022-07-29T04:22:34;17.80;99.90
36670;DHT22;22662;47.412;9.742;2022-07-29T04:24:59;17.80;99.90
36670;DHT22;22662;47.412;9.742;2022-07-29T04:27:25;17.80;99.90
36670;DHT22;22662;47.412;9.742;2022-07-29T04:29:51;17.90;99.90
36670;DHT22;22662;47.412;9.742;2022-07-29T04:32:17;18.00;99.90
36670;DHT22;22662;47.412;9.742;2022-07-29T04:34:42;18.10;99.90
36670;DHT22;22662;47.412;9.742;2022-07-29T04:37:08;18.20;99.90
36670;DHT22;22662;47.412;9.742;2022-07-29T04:39:34;18.20;99.90
36670;DHT22;22662;47.412;9.742;2022-07-29T04:42:00;18.20;99.90
36670;DHT22;22662;47.412;9.742;2022-07-29T04:44:25;18.10;99.90
36670;DHT22;22662;47.412;9.742;2022-07-29T04:46:52;18.20;99.90
36670;DHT22;22662;47.412;9.742;2022-07-29T04:49:17;18.20;99.90
36670;DHT22;22662;47.412;9.742;2022-07-29T04:51:43;18.00;99.90
36670;DHT22;22662;47.412;9.742;2022-07-29T04:54:09;18.00;99.90
36670;DHT22;22662;47.412;9.742;2022-07-29T04:56:35;18.10;99.90
36670;DHT22;22662;47.412;9.742;2022-07-29T04:59:00;18.20;99.90
36670;DHT22;22662;47.412;9.742;2022-07-29T05:01:26;18.30;99.90
36670;DHT22;22662;47.412;9.742;2022-07-29T05:03:52;18.30;99.90
36670;DHT22;22662;47.412;9.742;2022-07-29T05:06:18;18.30;99.90
36670;DHT22;22662;47.412;9.742;2022-07-29T05:08:44;18.50;99.90
36670;DHT22;22662;47.412;9.742;2022-07-29T05:11:09;18.50;99.90
36670;DHT22;22662;47.412;9.742;2022-07-29T05:13:36;18.50;99.90
36670;DHT22;22662;47.412;9.742;2022-07-29T05:16:01;18.30;99.90
36670;DHT22;22662;47.412;9.742;2022-07-29T05:18:27;18.40;99.90
36670;DHT22;22662;47.412;9.742;2022-07-29T05:20:53;18.20;99.90
36670;DHT22;22662;47.412;9.742;2022-07-29T05:23:19;18.20;99.90
36670;DHT22;22662;47.412;9.742;2022-07-29T05:25:45;18.20;99.90
36670;DHT22;22662;47.412;9.742;2022-07-29T05:28:12;18.10;99.90
36670;DHT22;22662;47.412;9.742;2022-07-29T05:30:38;18.10;99.90
36670;DHT22;22662;47.412;9.742;2022-07-29T05:33:06;18.30;99.90
36670;DHT22;22662;47.412;9.742;2022-07-29T05:35:32;18.60;99.90
36670;DHT22;22662;47.412;9.742;2022-07-29T05:38:00;18.80;99.90
36670;DHT22;22662;47.412;9.742;2022-07-29T05:40:26;19.00;99.90
36670;DHT22;22662;47.412;9.742;2022-07-29T05:42:52;19.20;99.90
36670;DHT22;22662;47.412;9.742;2022-07-29T05:45:17;19.40;99.90
36670;DHT22;22662;47.412;9.742;2022-07-29T05:47:43;20.40;99.90
36670;DHT22;22662;47.412;9.742;2022-07-29T05:50:09;21.60;99.90
36670;DHT22;22662;47.412;9.742;2022-07-29T05:52:35;21.70;99.90
36670;DHT22;22662;47.412;9.742;2022-07-29T05:55:00;21.10;99.90
36670;DHT22;22662;47.412;9.742;2022-07-29T05:57:29;20.40;99.90
36670;DHT22;22662;47.412;9.742;2022-07-29T05:59:55;20.00;99.90
36670;DHT22;22662;47.412;9.742;2022-07-29T06:02:21;19.40;99.90
36670;DHT22;22662;47.412;9.742;2022-07-29T06:04:47;19.00;99.90
36670;DHT22;22662;47.412;9.742;2022-07-29T06:07:14;18.90;99.90
36670;DHT22;22662;47.412;9.742;2022-07-29T06:09:39;18.80;99.90
36670;DHT22;22662;47.412;9.742;2022-07-29T06:12:05;18.80;99.90
36670;DHT22;22662;47.412;9.742;2022-07-29T06:14:31;18.90;99.90
36670;DHT22;22662;47.412;9.742;2022-07-29T06:16:58;19.00;99.90
36670;DHT22;22662;47.412;9.742;2022-07-29T06:19:23;19.10;99.90
36670;DHT22;22662;47.412;9.742;2022-07-29T06:21:49;19.00;99.90
36670;DHT22;22662;47.412;9.742;2022-07-29T06:24:15;19.10;99.90
36670;DHT22;22662;47.412;9.742;2022-07-29T06:26:42;19.00;99.90
36670;DHT22;22662;47.412;9.742;2022-07-29T06:29:08;19.00;99.90
36670;DHT22;22662;47.412;9.742;2022-07-29T06:31:36;19.00;99.90
36670;DHT22;22662;47.412;9.742;2022-07-29T06:34:02;18.90;99.90
36670;DHT22;22662;47.412;9.742;2022-07-29T06:36:28;18.80;99.90
36670;DHT22;22662;47.412;9.742;2022-07-29T06:38:54;18.60;99.90
36670;DHT22;22662;47.412;9.742;2022-07-29T06:41:20;18.60;99.90
36670;DHT22;22662;47.412;9.742;2022-07-29T06:43:46;18.80;99.90
36670;DHT22;22662;47.412;9.742;2022-07-29T06:46:14;18.80;99.90
36670;DHT22;22662;47.412;9.742;2022-07-29T06:48:41;18.90;99.90
36670;DHT22;22662;47.412;9.742;2022-07-29T06:51:11;18.90;99.90
36670;DHT22;22662;47.412;9.742;2022-07-29T06:53:38;19.00;99.90
36670;DHT22;22662;47.412;9.742;2022-07-29T06:56:05;19.10;99.90
36670;DHT22;22662;47.412;9.742;2022-07-29T06:58:34;19.30;99.90
36670;DHT22;22662;47.412;9.742;2022-07-29T07:01:02;19.40;99.90
36670;DHT22;22662;47.412;9.742;2022-07-29T07:03:28;19.60;99.90
36670;DHT22;22662;47.412;9.742;2022-07-29T07:05:55;19.70;99.90
36670;DHT22;22662;47.412;9.742;2022-07-29T07:08:21;20.00;99.90
36670;DHT22;22662;47.412;9.742;2022-07-29T07:10:48;20.00;99.90
36670;DHT22;22662;47.412;9.742;2022-07-29T07:13:14;20.30;99.90
36670;DHT22;22662;47.412;9.742;2022-07-29T07:15:45;20.50;99.90
36670;DHT22;22662;47.412;9.742;2022-07-29T07:18:14;20.60;99.90
36670;DHT22;22662;47.412;9.742;2022-07-29T07:20:40;20.80;99.90
36670;DHT22;22662;47.412;9.742;2022-07-29T07:23:07;21.20;99.90
36670;DHT22;22662;47.412;9.742;2022-07-29T07:25:33;21.40;99.90
36670;DHT22;22662;47.412;9.742;2022-07-29T07:27:59;21.70;99.90
36670;DHT22;22662;47.412;9.742;2022-07-29T07:30:25;21.80;99.90
36670;DHT22;22662;47.412;9.742;2022-07-29T07:32:50;21.90;99.90
36670;DHT22;22662;47.412;9.742;2022-07-29T07:35:16;21.80;99.90
36670;DHT22;22662;47.412;9.742;2022-07-29T07:37:42;22.10;99.90
36670;DHT22;22662;47.412;9.742;2022-07-29T07:40:09;22.40;99.90
36670;DHT22;22662;47.412;9.742;2022-07-29T07:42:37;22.80;99.90
36670;DHT22;22662;47.412;9.742;2022-07-29T07:45:04;22.90;99.90
36670;DHT22;22662;47.412;9.742;2022-07-29T07:47:31;23.00;99.90
36670;DHT22;22662;47.412;9.742;2022-07-29T07:49:57;23.10;99.90
36670;DHT22;22662;47.412;9.742;2022-07-29T07:52:23;22.80;99.90
36670;DHT22;22662;47.412;9.742;2022-07-29T07:54:49;22.90;99.90
36670;DHT22;22662;47.412;9.742;2022-07-29T07:57:15;22.60;99.90
36670;DHT22;22662;47.412;9.742;2022-07-29T07:59:41;22.50;99.90
36670;DHT22;22662;47.412;9.742;2022-07-29T08:02:08;22.70;99.90
36670;DHT22;22662;47.412;9.742;2022-07-29T08:04:34;22.60;99.90
36670;DHT22;22662;47.412;9.742;2022-07-29T08:07:01;22.30;99.90
36670;DHT22;22662;47.412;9.742;2022-07-29T08:09:28;22.30;99.90
36670;DHT22;22662;47.412;9.742;2022-07-29T08:11:54;22.50;99.90
36670;DHT22;22662;47.412;9.742;2022-07-29T08:14:20;22.70;99.90
36670;DHT22;22662;47.412;9.742;2022-07-29T08:16:46;22.60;99.90
36670;DHT22;22662;47.412;9.742;2022-07-29T08:19:13;22.70;99.90
36670;DHT22;22662;47.412;9.742;2022-07-29T08:21:39;22.70;99.90
36670;DHT22;22662;47.412;9.742;2022-07-29T08:24:05;22.60;99.90
36670;DHT22;22662;47.412;9.742;2022-07-29T08:26:49;22.20;99.90
36670;DHT22;22662;47.412;9.742;2022-07-29T08:29:15;22.00;99.90
36670;DHT22;22662;47.412;9.742;2022-07-29T08:31:41;21.80;99.90
36670;DHT22;22662;47.412;9.742;2022-07-29T08:34:07;21.60;99.90
36670;DHT22;22662;47.412;9.742;2022-07-29T08:36:34;21.40;99.90
36670;DHT22;22662;47.412;9.742;2022-07-29T08:39:01;21.30;99.90
36670;DHT22;22662;47.412;9.742;2022-07-29T08:41:27;21.30;99.90
36670;DHT22;22662;47.412;9.742;2022-07-29T08:43:53;21.30;99.90
36670;DHT22;22662;47.412;9.742;2022-07-29T08:46:20;21.10;99.90
36670;DHT22;22662;47.412;9.742;2022-07-29T08:48:46;21.00;99.90
36670;DHT22;22662;47.412;9.742;2022-07-29T08:51:14;21.00;99.90
36670;DHT22;22662;47.412;9.742;2022-07-29T08:53:42;20.60;99.90
36670;DHT22;22662;47.412;9.742;2022-07-29T08:56:11;20.40;99.90
36670;DHT22;22662;47.412;9.742;2022-07-29T08:58:39;20.30;99.90
36670;DHT22;22662;47.412;9.742;2022-07-29T09:01:06;20.20;99.90
36670;DHT22;22662;47.412;9.742;2022-07-29T09:03:34;20.20;99.90
36670;DHT22;22662;47.412;9.742;2022-07-29T09:06:02;20.20;99.90
36670;DHT22;22662;47.412;9.742;2022-07-29T09:08:31;20.50;99.90
36670;DHT22;22662;47.412;9.742;2022-07-29T09:10:57;20.80;99.90
36670;DHT22;22662;47.412;9.742;2022-07-29T09:13:24;21.10;99.90
36670;DHT22;22662;47.412;9.742;2022-07-29T09:15:50;21.40;99.90
36670;DHT22;22662;47.412;9.742;2022-07-29T09:18:39;21.60;99.90
36670;DHT22;22662;47.412;9.742;2022-07-29T09:21:08;21.70;99.90
36670;DHT22;22662;47.412;9.742;2022-07-29T09:24:12;21.60;99.90
36670;DHT22;22662;47.412;9.742;2022-07-29T09:26:43;21.30;99.90
36670;DHT22;22662;47.412;9.742;2022-07-29T09:31:37;21.00;99.90
36670;DHT22;22662;47.412;9.742;2022-07-29T09:34:04;20.80;99.90
36670;DHT22;22662;47.412;9.742;2022-07-29T09:36:30;20.90;99.90
36670;DHT22;22662;47.412;9.742;2022-07-29T09:39:03;20.80;99.90
36670;DHT22;22662;47.412;9.742;2022-07-29T09:41:29;20.90;99.90
36670;DHT22;22662;47.412;9.742;2022-07-29T09:43:58;20.90;99.90
36670;DHT22;22662;47.412;9.742;2022-07-29T09:46:25;20.70;99.90
36670;DHT22;22662;47.412;9.742;2022-07-29T09:49:11;20.80;99.90
36670;DHT22;22662;47.412;9.742;2022-07-29T09:51:38;21.00;99.90
36670;DHT22;22662;47.412;9.742;2022-07-29T09:54:23;21.00;99.90
36670;DHT22;22662;47.412;9.742;2022-07-29T09:56:50;21.10;99.90
36670;DHT22;22662;47.412;9.742;2022-07-29T09:59:15;21.30;99.90
36670;DHT22;22662;47.412;9.742;2022-07-29T10:01:41;21.50;99.90
36670;DHT22;22662;47.412;9.742;2022-07-29T10:04:07;21.60;99.90
36670;DHT22;22662;47.412;9.742;2022-07-29T10:06:33;21.80;99.90
36670;DHT22;22662;47.412;9.742;2022-07-29T10:09:09;21.90;99.90
36670;DHT22;22662;47.412;9.742;2022-07-29T10:11:35;22.20;99.90
36670;DHT22;22662;47.412;9.742;2022-07-29T10:14:02;22.00;99.90
36670;DHT22;22662;47.412;9.742;2022-07-29T10:16:29;22.10;99.90
36670;DHT22;22662;47.412;9.742;2022-07-29T10:19:01;22.00;99.90
36670;DHT22;22662;47.412;9.742;2022-07-29T10:21:27;22.00;99.90
36670;DHT22;22662;47.412;9.742;2022-07-29T10:23:53;22.20;99.90
36670;DHT22;22662;47.412;9.742;2022-07-29T10:26:20;22.40;99.90
36670;DHT22;22662;47.412;9.742;2022-07-29T10:28:46;22.60;99.90
36670;DHT22;22662;47.412;9.742;2022-07-29T10:31:19;22.60;99.90
36670;DHT22;22662;47.412;9.742;2022-07-29T10:34:02;22.80;99.90
36670;DHT22;22662;47.412;9.742;2022-07-29T10:36:54;23.10;99.90
36670;DHT22;22662;47.412;9.742;2022-07-29T10:42:25;23.60;99.90
36670;DHT22;22662;47.412;9.742;2022-07-29T10:44:53;23.90;99.90
36670;DHT22;22662;47.412;9.742;2022-07-29T10:47:24;23.90;99.90
36670;DHT22;22662;47.412;9.742;2022-07-29T10:49:58;24.30;99.90
36670;DHT22;22662;47.412;9.742;2022-07-29T10:52:25;24.40;99.90
36670;DHT22;22662;47.412;9.742;2022-07-29T10:58:28;24.30;99.90
36670;DHT22;22662;47.412;9.742;2022-07-29T11:00:54;24.20;99.90
36670;DHT22;22662;47.412;9.742;2022-07-29T11:03:45;24.80;99.90
36670;DHT22;22662;47.412;9.742;2022-07-29T11:06:13;25.30;99.90
36670;DHT22;22662;47.412;9.742;2022-07-29T11:08:39;25.20;99.90
36670;DHT22;22662;47.412;9.742;2022-07-29T11:13:51;25.40;99.90
36670;DHT22;22662;47.412;9.742;2022-07-29T11:16:19;25.70;99.90
36670;DHT22;22662;47.412;9.742;2022-07-29T11:19:19;26.00;99.90
36670;DHT22;22662;47.412;9.742;2022-07-29T11:21:45;26.20;99.90
36670;DHT22;22662;47.412;9.742;2022-07-29T11:24:20;26.50;99.90
36670;DHT22;22662;47.412;9.742;2022-07-29T11:27:13;26.50;99.90
36670;DHT22;22662;47.412;9.742;2022-07-29T11:29:54;26.40;99.90
36670;DHT22;22662;47.412;9.742;2022-07-29T11:32:21;26.30;99.90
36670;DHT22;22662;47.412;9.742;2022-07-29T11:34:48;26.50;99.90
36670;DHT22;22662;47.412;9.742;2022-07-29T11:37:16;25.80;99.90
36670;DHT22;22662;47.412;9.742;2022-07-29T11:39:46;25.90;99.90
36670;DHT22;22662;47.412;9.742;2022-07-29T11:45:06;25.70;99.90
36670;DHT22;22662;47.412;9.742;2022-07-29T11:47:34;25.60;99.90
36670;DHT22;22662;47.412;9.742;2022-07-29T11:50:03;25.50;99.90
36670;DHT22;22662;47.412;9.742;2022-07-29T11:52:41;25.60;99.90
36670;DHT22;22662;47.412;9.742;2022-07-29T11:55:19;25.50;99.90
36670;DHT22;22662;47.412;9.742;2022-07-29T11:57:59;25.70;99.90
36670;DHT22;22662;47.412;9.742;2022-07-29T12:00:39;25.70;99.90
36670;DHT22;22662;47.412;9.742;2022-07-29T12:03:10;25.90;99.90
36670;DHT22;22662;47.412;9.742;2022-07-29T12:05:43;25.70;98.70
36670;DHT22;22662;47.412;9.742;2022-07-29T12:08:20;25.90;99.90
36670;DHT22;22662;47.412;9.742;2022-07-29T12:10:48;26.30;99.90
36670;DHT22;22662;47.412;9.742;2022-07-29T12:13:16;26.10;99.90
36670;DHT22;22662;47.412;9.742;2022-07-29T12:15:42;26.20;99.90
36670;DHT22;22662;47.412;9.742;2022-07-29T12:18:19;26.00;99.90
36670;DHT22;22662;47.412;9.742;2022-07-29T12:20:49;25.80;99.90
36670;DHT22;22662;47.412;9.742;2022-07-29T12:23:21;25.40;99.90
36670;DHT22;22662;47.412;9.742;2022-07-29T12:25:47;25.60;99.90
36670;DHT22;22662;47.412;9.742;2022-07-29T12:28:14;25.80;99.90
36670;DHT22;22662;47.412;9.742;2022-07-29T12:30:51;25.70;99.90
36670;DHT22;22662;47.412;9.742;2022-07-29T12:33:28;25.70;99.90
36670;DHT22;22662;47.412;9.742;2022-07-29T12:35:57;25.50;99.90
36670;DHT22;22662;47.412;9.742;2022-07-29T12:38:24;25.30;99.90
36670;DHT22;22662;47.412;9.742;2022-07-29T12:40:52;25.20;99.90
36670;DHT22;22662;47.412;9.742;2022-07-29T12:43:20;25.10;99.90
36670;DHT22;22662;47.412;9.742;2022-07-29T12:45:54;25.30;99.90
36670;DHT22;22662;47.412;9.742;2022-07-29T12:48:37;25.50;99.90
36670;DHT22;22662;47.412;9.742;2022-07-29T12:51:05;25.60;99.90
36670;DHT22;22662;47.412;9.742;2022-07-29T12:53:32;25.60;99.90
36670;DHT22;22662;47.412;9.742;2022-07-29T12:55:58;25.50;99.90
36670;DHT22;22662;47.412;9.742;2022-07-29T12:58:32;25.40;99.90
36670;DHT22;22662;47.412;9.742;2022-07-29T13:01:10;25.40;99.90
36670;DHT22;22662;47.412;9.742;2022-07-29T13:03:56;24.80;99.90
36670;DHT22;22662;47.412;9.742;2022-07-29T13:09:08;24.80;99.90
36670;DHT22;22662;47.412;9.742;2022-07-29T13:11:37;24.50;99.90
36670;DHT22;22662;47.412;9.742;2022-07-29T13:14:04;24.40;99.90
36670;DHT22;22662;47.412;9.742;2022-07-29T13:16:30;24.40;99.90
36670;DHT22;22662;47.412;9.742;2022-07-29T13:19:10;24.60;99.90
36670;DHT22;22662;47.412;9.742;2022-07-29T13:21:37;24.70;99.90
36670;DHT22;22662;47.412;9.742;2022-07-29T13:24:06;24.40;99.90
36670;DHT22;22662;47.412;9.742;2022-07-29T13:26:32;24.50;99.90
36670;DHT22;22662;47.412;9.742;2022-07-29T13:28:58;24.60;99.90
36670;DHT22;22662;47.412;9.742;2022-07-29T13:31:24;24.70;99.90
36670;DHT22;22662;47.412;9.742;2022-07-29T13:33:49;24.70;99.90
36670;DHT22;22662;47.412;9.742;2022-07-29T13:36:15;24.70;99.90
36670;DHT22;22662;47.412;9.742;2022-07-29T13:38:41;24.60;99.90
36670;DHT22;22662;47.412;9.742;2022-07-29T13:41:07;24.60;99.90
36670;DHT22;22662;47.412;9.742;2022-07-29T13:43:33;24.60;99.90
36670;DHT22;22662;47.412;9.742;2022-07-29T13:46:01;24.60;99.90
36670;DHT22;22662;47.412;9.742;2022-07-29T13:48:27;24.40;99.90
36670;DHT22;22662;47.412;9.742;2022-07-29T13:50:53;24.30;99.90
36670;DHT22;22662;47.412;9.742;2022-07-29T13:53:19;24.20;99.90
36670;DHT22;22662;47.412;9.742;2022-07-29T13:55:44;24.00;99.90
36670;DHT22;22662;47.412;9.742;2022-07-29T13:58:10;23.80;99.90
36670;DHT22;22662;47.412;9.742;2022-07-29T14:00:36;23.80;99.90
36670;DHT22;22662;47.412;9.742;2022-07-29T14:03:02;23.90;99.90
36670;DHT22;22662;47.412;9.742;2022-07-29T14:05:27;24.00;99.90
36670;DHT22;22662;47.412;9.742;2022-07-29T14:07:53;24.20;99.90
36670;DHT22;22662;47.412;9.742;2022-07-29T14:10:19;24.20;99.90
36670;DHT22;22662;47.412;9.742;2022-07-29T14:12:45;24.10;99.90
36670;DHT22;22662;47.412;9.742;2022-07-29T14:15:10;23.90;99.90
36670;DHT22;22662;47.412;9.742;2022-07-29T14:17:36;23.80;99.90
36670;DHT22;22662;47.412;9.742;2022-07-29T14:20:03;23.80;99.90
36670;DHT22;22662;47.412;9.742;2022-07-29T14:22:29;23.80;99.90
36670;DHT22;22662;47.412;9.742;2022-07-29T14:24:55;23.60;99.90
36670;DHT22;22662;47.412;9.742;2022-07-29T14:27:21;23.60;99.90
36670;DHT22;22662;47.412;9.742;2022-07-29T14:29:46;23.60;99.90
36670;DHT22;22662;47.412;9.742;2022-07-29T14:32:12;23.40;99.90
36670;DHT22;22662;47.412;9.742;2022-07-29T14:34:40;23.40;99.90
36670;DHT22;22662;47.412;9.742;2022-07-29T14:37:06;23.30;99.90
36670;DHT22;22662;47.412;9.742;2022-07-29T14:39:32;23.20;99.90
36670;DHT22;22662;47.412;9.742;2022-07-29T14:41:58;23.20;99.90
36670;DHT22;22662;47.412;9.742;2022-07-29T14:44:24;23.10;99.90
36670;DHT22;22662;47.412;9.742;2022-07-29T14:46:54;23.00;99.90
36670;DHT22;22662;47.412;9.742;2022-07-29T14:49:20;23.00;99.90
36670;DHT22;22662;47.412;9.742;2022-07-29T14:51:46;23.00;99.90
36670;DHT22;22662;47.412;9.742;2022-07-29T14:54:11;22.90;99.90
36670;DHT22;22662;47.412;9.742;2022-07-29T14:56:37;22.80;99.90
36670;DHT22;22662;47.412;9.742;2022-07-29T14:59:03;22.70;99.90
36670;DHT22;22662;47.412;9.742;2022-07-29T15:01:29;22.60;99.90
36670;DHT22;22662;47.412;9.742;2022-07-29T15:03:55;22.50;99.90
36670;DHT22;22662;47.412;9.742;2022-07-29T15:06:21;22.50;99.90
36670;DHT22;22662;47.412;9.742;2022-07-29T15:08:47;22.60;99.90
36670;DHT22;22662;47.412;9.742;2022-07-29T15:11:12;22.50;99.90
36670;DHT22;22662;47.412;9.742;2022-07-29T15:13:38;22.30;99.90
36670;DHT22;22662;47.412;9.742;2022-07-29T15:16:05;22.30;99.90
36670;DHT22;22662;47.412;9.742;2022-07-29T15:18:31;22.30;99.90
36670;DHT22;22662;47.412;9.742;2022-07-29T15:20:56;22.10;99.90
36670;DHT22;22662;47.412;9.742;2022-07-29T15:23:22;21.80;99.90
36670;DHT22;22662;47.412;9.742;2022-07-29T15:25:48;21.60;99.90
36670;DHT22;22662;47.412;9.742;2022-07-29T15:28:14;21.40;99.90
36670;DHT22;22662;47.412;9.742;2022-07-29T15:30:39;21.20;99.90
36670;DHT22;22662;47.412;9.742;2022-07-29T15:33:07;21.10;99.90
36670;DHT22;22662;47.412;9.742;2022-07-29T15:35:35;21.00;99.90
36670;DHT22;22662;47.412;9.742;2022-07-29T15:38:01;20.70;99.90
36670;DHT22;22662;47.412;9.742;2022-07-29T15:40:27;20.60;99.90
36670;DHT22;22662;47.412;9.742;2022-07-29T15:42:53;20.50;99.90
36670;DHT22;22662;47.412;9.742;2022-07-29T15:45:19;20.20;99.90
36670;DHT22;22662;47.412;9.742;2022-07-29T15:47:45;20.30;99.90
36670;DHT22;22662;47.412;9.742;2022-07-29T15:50:11;20.20;99.90
36670;DHT22;22662;47.412;9.742;2022-07-29T15:52:41;20.20;99.90
36670;DHT22;22662;47.412;9.742;2022-07-29T15:55:07;20.30;99.90
36670;DHT22;22662;47.412;9.742;2022-07-29T15:57:33;20.30;99.90
36670;DHT22;22662;47.412;9.742;2022-07-29T15:59:59;20.10;99.90
36670;DHT22;22662;47.412;9.742;2022-07-29T16:02:25;20.00;99.90
36670;DHT22;22662;47.412;9.742;2022-07-29T16:04:51;20.00;99.90
36670;DHT22;22662;47.412;9.742;2022-07-29T16:07:16;20.10;99.90